sensor_id;sensor_type;location;lat;lon;timestamp;temperature;humidity
67249;SHT31;63247;54.300;18.592;2023-04-25T00:01:03;10.85;99.99
67249;SHT31;63247;54.300;18.592;2023-04-25T00:03:30;10.85;99.99
67249;SHT31;63247;54.300;18.592;2023-04-25T00:05:55;10.81;99.99
67249;SHT31;63247;54.300;18.592;2023-04-25T00:08:22;10.84;99.99
67249;SHT31;63247;54.300;18.592;2023-04-25T00:10:47;10.87;99.99
67249;SHT31;63247;54.300;18.592;2023-04-25T00:13:14;10.84;99.99
67249;SHT31;63247;54.300;18.592;2023-04-25T00:15:40;10.93;99.99
67249;SHT31;63247;54.300;18.592;2023-04-25T00:18:07;10.90;99.99
67249;SHT31;63247;54.300;18.592;2023-04-25T00:20:32;10.94;99.99
67249;SHT31;63247;54.300;18.592;2023-04-25T00:22:58;10.93;99.99
67249;SHT31;63247;54.300;18.592;2023-04-25T00:25:23;10.90;99.99
67249;SHT31;63247;54.300;18.592;2023-04-25T00:27:49;10.90;99.99
67249;SHT31;63247;54.300;18.592;2023-04-25T00:30:14;10.91;99.99
67249;SHT31;63247;54.300;18.592;2023-04-25T00:32:40;10.91;99.99
67249;SHT31;63247;54.300;18.592;2023-04-25T00:35:05;10.87;99.99
67249;SHT31;63247;54.300;18.592;2023-04-25T00:37:31;10.85;99.99
67249;SHT31;63247;54.300;18.592;2023-04-25T00:39:58;10.83;99.99
67249;SHT31;63247;54.300;18.592;2023-04-25T00:42:24;10.80;99.99
67249;SHT31;63247;54.300;18.592;2023-04-25T00:44:52;10.83;99.99
67249;SHT31;63247;54.300;18.592;2023-04-25T00:47:17;10.83;99.99
67249;SHT31;63247;54.300;18.592;2023-04-25T00:49:43;10.83;99.99
67249;SHT31;63247;54.300;18.592;2023-04-25T00:52:09;10.80;99.99
67249;SHT31;63247;54.300;18.592;2023-04-25T00:54:34;10.80;99.99
67249;SHT31;63247;54.300;18.592;2023-04-25T00:57:00;10.83;99.99
67249;SHT31;63247;54.300;18.592;2023-04-25T00:59:27;10.84;99.99
67249;SHT31;63247;54.300;18.592;2023-04-25T01:01:53;10.81;99.99
67249;SHT31;63247;54.300;18.592;2023-04-25T01:04:18;10.80;99.99
67249;SHT31;63247;54.300;18.592;2023-04-25T01:06:44;10.79;99.99
67249;SHT31;63247;54.300;18.592;2023-04-25T01:09:10;10.81;99.99
67249;SHT31;63247;54.300;18.592;2023-04-25T01:11:35;10.83;99.99
67249;SHT31;63247;54.300;18.592;2023-04-25T01:14:01;10.83;99.99
67249;SHT31;63247;54.300;18.592;2023-04-25T01:16:27;10.77;99.99
67249;SHT31;63247;54.300;18.592;2023-04-25T01:18:53;10.74;99.99
67249;SHT31;63247;54.300;18.592;2023-04-25T01:21:19;10.76;99.99
67249;SHT31;63247;54.300;18.592;2023-04-25T01:23:45;10.73;99.99
67249;SHT31;63247;54.300;18.592;2023-04-25T01:26:11;10.73;99.99
67249;SHT31;63247;54.300;18.592;2023-04-25T01:28:38;10.70;99.99
67249;SHT31;63247;54.300;18.592;2023-04-25T01:31:06;10.69;99.99
67249;SHT31;63247;54.300;18.592;2023-04-25T01:33:32;10.67;99.99
67249;SHT31;63247;54.300;18.592;2023-04-25T01:35:57;10.67;99.99
67249;SHT31;63247;54.300;18.592;2023-04-25T01:38:23;10.70;99.99
67249;SHT31;63247;54.300;18.592;2023-04-25T01:40:49;10.69;99.99
67249;SHT31;63247;54.300;18.592;2023-04-25T01:43:15;10.69;99.99
67249;SHT31;63247;54.300;18.592;2023-04-25T01:45:41;10.69;99.99
67249;SHT31;63247;54.300;18.592;2023-04-25T01:48:08;10.64;99.99
67249;SHT31;63247;54.300;18.592;2023-04-25T01:50:34;10.63;99.99
67249;SHT31;63247;54.300;18.592;2023-04-25T01:53:00;10.62;99.99
67249;SHT31;63247;54.300;18.592;2023-04-25T01:55:27;10.62;99.99
67249;SHT31;63247;54.300;18.592;2023-04-25T01:57:52;10.60;99.99
67249;SHT31;63247;54.300;18.592;2023-04-25T02:00:18;10.60;99.99
67249;SHT31;63247;54.300;18.592;2023-04-25T02:02:43;10.62;99.99
67249;SHT31;63247;54.300;18.592;2023-04-25T02:05:09;10.63;99.99
67249;SHT31;63247;54.300;18.592;2023-04-25T02:07:34;10.62;99.99
67249;SHT31;63247;54.300;18.592;2023-04-25T02:10:00;10.62;99.99
67249;SHT31;63247;54.300;18.592;2023-04-25T02:12:26;10.62;99.99
67249;SHT31;63247;54.300;18.592;2023-04-25T02:14:52;10.57;99.99
67249;SHT31;63247;54.300;18.592;2023-04-25T02:17:17;10.57;99.99
67249;SHT31;63247;54.300;18.592;2023-04-25T02:19:43;10.55;99.99
67249;SHT31;63247;54.300;18.592;2023-04-25T02:22:09;10.55;99.99
67249;SHT31;63247;54.300;18.592;2023-04-25T02:24:35;10.56;99.99
67249;SHT31;63247;54.300;18.592;2023-04-25T02:27:01;10.53;99.99
67249;SHT31;63247;54.300;18.592;2023-04-25T02:29:26;10.52;99.99
67249;SHT31;63247;54.300;18.592;2023-04-25T02:31:51;10.52;99.99
67249;SHT31;63247;54.300;18.592;2023-04-25T02:34:17;10.53;99.99
67249;SHT31;63247;54.300;18.592;2023-04-25T02:36:42;10.52;99.99
67249;SHT31;63247;54.300;18.592;2023-04-25T02:39:08;10.48;99.99
67249;SHT31;63247;54.300;18.592;2023-04-25T02:41:33;10.46;99.99
67249;SHT31;63247;54.300;18.592;2023-04-25T02:43:59;10.43;99.99
67249;SHT31;63247;54.300;18.592;2023-04-25T02:46:24;10.42;99.99
67249;SHT31;63247;54.300;18.592;2023-04-25T02:48:49;10.39;99.99
67249;SHT31;63247;54.300;18.592;2023-04-25T02:51:15;10.39;99.99
67249;SHT31;63247;54.300;18.592;2023-04-25T02:53:41;10.36;99.99
67249;SHT31;63247;54.300;18.592;2023-04-25T02:56:07;10.32;99.99
67249;SHT31;63247;54.300;18.592;2023-04-25T02:58:32;10.33;99.99
67249;SHT31;63247;54.300;18.592;2023-04-25T03:00:58;10.33;99.99
67249;SHT31;63247;54.300;18.592;2023-04-25T03:03:23;10.35;99.99
67249;SHT31;63247;54.300;18.592;2023-04-25T03:05:49;10.35;99.99
67249;SHT31;63247;54.300;18.592;2023-04-25T03:08:15;10.36;99.99
67249;SHT31;63247;54.300;18.592;2023-04-25T03:10:41;10.38;99.99
67249;SHT31;63247;54.300;18.592;2023-04-25T03:13:06;10.32;99.99
67249;SHT31;63247;54.300;18.592;2023-04-25T03:15:32;10.35;99.99
67249;SHT31;63247;54.300;18.592;2023-04-25T03:17:57;10.29;99.99
67249;SHT31;63247;54.300;18.592;2023-04-25T03:20:22;10.31;99.99
67249;SHT31;63247;54.300;18.592;2023-04-25T03:22:48;10.29;99.99
67249;SHT31;63247;54.300;18.592;2023-04-25T03:25:13;10.28;99.99
67249;SHT31;63247;54.300;18.592;2023-04-25T03:27:41;10.32;99.99
67249;SHT31;63247;54.300;18.592;2023-04-25T03:30:07;10.32;99.99
67249;SHT31;63247;54.300;18.592;2023-04-25T03:32:33;10.32;99.99
67249;SHT31;63247;54.300;18.592;2023-04-25T03:34:59;10.31;99.99
67249;SHT31;63247;54.300;18.592;2023-04-25T03:37:24;10.36;99.99
67249;SHT31;63247;54.300;18.592;2023-04-25T03:39:50;10.38;99.99
67249;SHT31;63247;54.300;18.592;2023-04-25T03:42:15;10.33;99.99
67249;SHT31;63247;54.300;18.592;2023-04-25T03:44:40;10.41;99.99
67249;SHT31;63247;54.300;18.592;2023-04-25T03:47:06;10.38;99.99
67249;SHT31;63247;54.300;18.592;2023-04-25T03:49:32;10.42;99.99
67249;SHT31;63247;54.300;18.592;2023-04-25T03:51:58;10.33;99.99
67249;SHT31;63247;54.300;18.592;2023-04-25T03:54:23;10.06;99.99
67249;SHT31;63247;54.300;18.592;2023-04-25T03:56:48;9.80;99.99
67249;SHT31;63247;54.300;18.592;2023-04-25T03:59:14;9.84;99.99
67249;SHT31;63247;54.300;18.592;2023-04-25T04:01:39;9.64;99.99
67249;SHT31;63247;54.300;18.592;2023-04-25T04:04:05;9.56;99.99
67249;SHT31;63247;54.300;18.592;2023-04-25T04:06:30;9.48;99.99
67249;SHT31;63247;54.300;18.592;2023-04-25T04:08:56;9.46;99.99
67249;SHT31;63247;54.300;18.592;2023-04-25T04:11:21;9.37;99.99
67249;SHT31;63247;54.300;18.592;2023-04-25T04:13:47;9.22;99.99
67249;SHT31;63247;54.300;18.592;2023-04-25T04:16:12;9.22;99.99
67249;SHT31;63247;54.300;18.592;2023-04-25T04:18:38;9.23;99.99
67249;SHT31;63247;54.300;18.592;2023-04-25T04:21:03;9.29;99.99
67249;SHT31;63247;54.300;18.592;2023-04-25T04:23:29;9.30;99.99
67249;SHT31;63247;54.300;18.592;2023-04-25T04:25:54;9.23;99.99
67249;SHT31;63247;54.300;18.592;2023-04-25T04:28:21;9.26;99.99
67249;SHT31;63247;54.300;18.592;2023-04-25T04:30:47;9.22;99.99
67249;SHT31;63247;54.300;18.592;2023-04-25T04:33:12;9.20;99.99
67249;SHT31;63247;54.300;18.592;2023-04-25T04:35:40;9.26;99.99
67249;SHT31;63247;54.300;18.592;2023-04-25T04:38:06;9.19;99.99
67249;SHT31;63247;54.300;18.592;2023-04-25T04:40:32;9.23;99.99
67249;SHT31;63247;54.300;18.592;2023-04-25T04:42:57;9.25;99.99
67249;SHT31;63247;54.300;18.592;2023-04-25T04:45:23;9.22;99.99
67249;SHT31;63247;54.300;18.592;2023-04-25T04:47:49;9.18;99.99
67249;SHT31;63247;54.300;18.592;2023-04-25T04:50:15;9.12;99.99
67249;SHT31;63247;54.300;18.592;2023-04-25T04:52:41;9.20;99.99
67249;SHT31;63247;54.300;18.592;2023-04-25T04:55:07;9.25;99.99
67249;SHT31;63247;54.300;18.592;2023-04-25T04:57:33;9.27;99.99
67249;SHT31;63247;54.300;18.592;2023-04-25T04:59:59;9.30;99.99
67249;SHT31;63247;54.300;18.592;2023-04-25T05:02:25;9.22;99.99
67249;SHT31;63247;54.300;18.592;2023-04-25T05:04:51;9.35;99.99
67249;SHT31;63247;54.300;18.592;2023-04-25T05:07:17;9.35;99.99
67249;SHT31;63247;54.300;18.592;2023-04-25T05:09:43;9.29;99.99
67249;SHT31;63247;54.300;18.592;2023-04-25T05:12:09;9.37;99.99
67249;SHT31;63247;54.300;18.592;2023-04-25T05:14:34;9.44;99.99
67249;SHT31;63247;54.300;18.592;2023-04-25T05:17:00;9.53;99.99
67249;SHT31;63247;54.300;18.592;2023-04-25T05:19:25;9.56;99.99
67249;SHT31;63247;54.300;18.592;2023-04-25T05:21:51;9.44;99.99
67249;SHT31;63247;54.300;18.592;2023-04-25T05:24:17;9.58;99.68
67249;SHT31;63247;54.300;18.592;2023-04-25T05:26:42;9.60;99.87
67249;SHT31;63247;54.300;18.592;2023-04-25T05:29:08;9.64;99.99
67249;SHT31;63247;54.300;18.592;2023-04-25T05:31:34;9.67;99.99
67249;SHT31;63247;54.300;18.592;2023-04-25T05:33:59;9.73;99.99
67249;SHT31;63247;54.300;18.592;2023-04-25T05:36:25;9.42;99.66
67249;SHT31;63247;54.300;18.592;2023-04-25T05:38:51;9.43;99.37
67249;SHT31;63247;54.300;18.592;2023-04-25T05:41:16;9.35;98.34
67249;SHT31;63247;54.300;18.592;2023-04-25T05:43:42;9.54;98.07
67249;SHT31;63247;54.300;18.592;2023-04-25T05:46:12;9.50;97.15
67249;SHT31;63247;54.300;18.592;2023-04-25T05:48:38;9.37;97.25
67249;SHT31;63247;54.300;18.592;2023-04-25T05:51:03;9.29;97.23
67249;SHT31;63247;54.300;18.592;2023-04-25T05:53:29;9.25;97.47
67249;SHT31;63247;54.300;18.592;2023-04-25T05:55:54;9.33;96.73
67249;SHT31;63247;54.300;18.592;2023-04-25T05:58:19;9.19;96.96
67249;SHT31;63247;54.300;18.592;2023-04-25T06:00:45;9.20;97.47
67249;SHT31;63247;54.300;18.592;2023-04-25T06:03:11;9.02;97.61
67249;SHT31;63247;54.300;18.592;2023-04-25T06:05:41;8.87;97.46
67249;SHT31;63247;54.300;18.592;2023-04-25T06:08:06;8.74;97.56
67249;SHT31;63247;54.300;18.592;2023-04-25T06:10:31;8.75;97.28
67249;SHT31;63247;54.300;18.592;2023-04-25T06:12:57;8.71;96.79
67249;SHT31;63247;54.300;18.592;2023-04-25T06:15:22;8.84;96.34
67249;SHT31;63247;54.300;18.592;2023-04-25T06:17:48;8.75;95.99
67249;SHT31;63247;54.300;18.592;2023-04-25T06:20:14;8.68;96.82
67249;SHT31;63247;54.300;18.592;2023-04-25T06:22:39;8.68;96.06
67249;SHT31;63247;54.300;18.592;2023-04-25T06:25:05;8.56;96.81
67249;SHT31;63247;54.300;18.592;2023-04-25T06:27:32;8.57;96.67
67249;SHT31;63247;54.300;18.592;2023-04-25T06:29:58;8.58;96.49
67249;SHT31;63247;54.300;18.592;2023-04-25T06:32:23;8.58;96.81
67249;SHT31;63247;54.300;18.592;2023-04-25T06:34:48;8.54;96.78
67249;SHT31;63247;54.300;18.592;2023-04-25T06:37:14;8.56;96.89
67249;SHT31;63247;54.300;18.592;2023-04-25T06:39:39;8.57;97.10
67249;SHT31;63247;54.300;18.592;2023-04-25T06:42:05;8.63;97.28
67249;SHT31;63247;54.300;18.592;2023-04-25T06:44:30;8.63;96.60
67249;SHT31;63247;54.300;18.592;2023-04-25T06:46:55;8.69;96.73
67249;SHT31;63247;54.300;18.592;2023-04-25T06:49:21;8.77;96.67
67249;SHT31;63247;54.300;18.592;2023-04-25T06:51:47;8.88;96.44
67249;SHT31;63247;54.300;18.592;2023-04-25T06:54:12;8.95;96.03
67249;SHT31;63247;54.300;18.592;2023-04-25T06:56:39;9.11;96.24
67249;SHT31;63247;54.300;18.592;2023-04-25T06:59:04;9.30;95.25
67249;SHT31;63247;54.300;18.592;2023-04-25T07:01:30;9.20;94.97
67249;SHT31;63247;54.300;18.592;2023-04-25T07:03:55;9.15;94.65
67249;SHT31;63247;54.300;18.592;2023-04-25T07:06:21;9.20;94.08
67249;SHT31;63247;54.300;18.592;2023-04-25T07:08:46;8.98;95.10
67249;SHT31;63247;54.300;18.592;2023-04-25T07:11:11;9.02;94.98
67249;SHT31;63247;54.300;18.592;2023-04-25T07:13:37;8.99;94.73
67249;SHT31;63247;54.300;18.592;2023-04-25T07:16:02;9.06;94.18
67249;SHT31;63247;54.300;18.592;2023-04-25T07:18:28;9.35;93.48
67249;SHT31;63247;54.300;18.592;2023-04-25T07:20:53;9.02;94.20
67249;SHT31;63247;54.300;18.592;2023-04-25T07:23:19;9.06;94.10
67249;SHT31;63247;54.300;18.592;2023-04-25T07:25:44;9.08;92.92
67249;SHT31;63247;54.300;18.592;2023-04-25T07:28:10;9.18;93.09
67249;SHT31;63247;54.300;18.592;2023-04-25T07:30:35;9.14;93.38
67249;SHT31;63247;54.300;18.592;2023-04-25T07:33:01;9.05;93.57
67249;SHT31;63247;54.300;18.592;2023-04-25T07:35:27;9.09;93.38
67249;SHT31;63247;54.300;18.592;2023-04-25T07:37:52;9.11;93.58
67249;SHT31;63247;54.300;18.592;2023-04-25T07:40:18;9.16;93.25
67249;SHT31;63247;54.300;18.592;2023-04-25T07:42:43;9.22;93.15
67249;SHT31;63247;54.300;18.592;2023-04-25T07:45:09;9.12;92.59
67249;SHT31;63247;54.300;18.592;2023-04-25T07:47:35;9.15;93.04
67249;SHT31;63247;54.300;18.592;2023-04-25T07:50:01;9.16;93.40
67249;SHT31;63247;54.300;18.592;2023-04-25T07:52:26;9.06;92.93
67249;SHT31;63247;54.300;18.592;2023-04-25T07:54:51;9.19;92.64
67249;SHT31;63247;54.300;18.592;2023-04-25T07:57:17;9.11;92.92
67249;SHT31;63247;54.300;18.592;2023-04-25T07:59:43;9.19;92.60
67249;SHT31;63247;54.300;18.592;2023-04-25T08:02:09;9.26;92.12
67249;SHT31;63247;54.300;18.592;2023-04-25T08:04:34;9.63;91.22
67249;SHT31;63247;54.300;18.592;2023-04-25T08:06:59;10.02;90.88
67249;SHT31;63247;54.300;18.592;2023-04-25T08:09:25;10.42;89.55
67249;SHT31;63247;54.300;18.592;2023-04-25T08:11:50;10.46;89.20
67249;SHT31;63247;54.300;18.592;2023-04-25T08:14:16;10.76;88.28
67249;SHT31;63247;54.300;18.592;2023-04-25T08:16:41;10.71;88.92
67249;SHT31;63247;54.300;18.592;2023-04-25T08:19:07;10.77;87.34
67249;SHT31;63247;54.300;18.592;2023-04-25T08:21:32;10.77;87.95
67249;SHT31;63247;54.300;18.592;2023-04-25T08:23:58;10.90;86.17
67249;SHT31;63247;54.300;18.592;2023-04-25T08:26:24;10.76;87.28
67249;SHT31;63247;54.300;18.592;2023-04-25T08:28:50;11.03;87.16
67249;SHT31;63247;54.300;18.592;2023-04-25T08:31:16;10.97;87.09
67249;SHT31;63247;54.300;18.592;2023-04-25T08:33:41;10.90;87.43
67249;SHT31;63247;54.300;18.592;2023-04-25T08:36:07;10.84;85.77
67249;SHT31;63247;54.300;18.592;2023-04-25T08:38:32;10.80;86.96
67249;SHT31;63247;54.300;18.592;2023-04-25T08:40:59;10.97;84.59
67249;SHT31;63247;54.300;18.592;2023-04-25T08:43:26;11.03;85.07
67249;SHT31;63247;54.300;18.592;2023-04-25T08:45:52;11.10;84.87
67249;SHT31;63247;54.300;18.592;2023-04-25T08:48:19;11.15;85.19
67249;SHT31;63247;54.300;18.592;2023-04-25T08:50:49;11.31;84.45
67249;SHT31;63247;54.300;18.592;2023-04-25T08:53:16;11.43;83.19
67249;SHT31;63247;54.300;18.592;2023-04-25T08:55:45;11.59;83.67
67249;SHT31;63247;54.300;18.592;2023-04-25T08:58:11;11.85;82.85
67249;SHT31;63247;54.300;18.592;2023-04-25T09:00:39;12.03;81.50
67249;SHT31;63247;54.300;18.592;2023-04-25T09:03:04;12.13;81.24
67249;SHT31;63247;54.300;18.592;2023-04-25T09:05:30;12.44;80.25
67249;SHT31;63247;54.300;18.592;2023-04-25T09:07:55;12.44;79.94
67249;SHT31;63247;54.300;18.592;2023-04-25T09:10:22;12.56;80.38
67249;SHT31;63247;54.300;18.592;2023-04-25T09:13:07;12.59;80.81
67249;SHT31;63247;54.300;18.592;2023-04-25T09:18:14;12.64;79.96
67249;SHT31;63247;54.300;18.592;2023-04-25T09:20:46;12.41;80.00
67249;SHT31;63247;54.300;18.592;2023-04-25T09:23:12;12.27;80.97
67249;SHT31;63247;54.300;18.592;2023-04-25T09:25:38;11.80;82.34
67249;SHT31;63247;54.300;18.592;2023-04-25T09:28:08;11.55;83.02
67249;SHT31;63247;54.300;18.592;2023-04-25T09:30:35;11.42;83.08
67249;SHT31;63247;54.300;18.592;2023-04-25T09:33:08;11.14;83.38
67249;SHT31;63247;54.300;18.592;2023-04-25T09:35:38;11.03;84.26
67249;SHT31;63247;54.300;18.592;2023-04-25T09:38:11;11.11;83.89
67249;SHT31;63247;54.300;18.592;2023-04-25T09:40:45;11.07;83.82
67249;SHT31;63247;54.300;18.592;2023-04-25T09:43:21;11.12;83.95
67249;SHT31;63247;54.300;18.592;2023-04-25T09:45:46;11.24;82.98
67249;SHT31;63247;54.300;18.592;2023-04-25T09:48:20;11.36;83.55
67249;SHT31;63247;54.300;18.592;2023-04-25T09:53:37;11.08;83.28
67249;SHT31;63247;54.300;18.592;2023-04-25T09:56:07;11.10;83.51
67249;SHT31;63247;54.300;18.592;2023-04-25T09:58:34;11.11;83.97
67249;SHT31;63247;54.300;18.592;2023-04-25T10:01:02;11.27;83.38
67249;SHT31;63247;54.300;18.592;2023-04-25T10:03:32;11.07;84.18
67249;SHT31;63247;54.300;18.592;2023-04-25T10:06:08;11.14;84.03
67249;SHT31;63247;54.300;18.592;2023-04-25T10:08:36;11.34;84.33
67249;SHT31;63247;54.300;18.592;2023-04-25T10:11:07;11.35;83.81
67249;SHT31;63247;54.300;18.592;2023-04-25T10:13:34;11.34;83.89
67249;SHT31;63247;54.300;18.592;2023-04-25T10:16:02;11.49;83.33
67249;SHT31;63247;54.300;18.592;2023-04-25T10:18:29;11.59;83.52
67249;SHT31;63247;54.300;18.592;2023-04-25T10:20:57;11.40;83.11
67249;SHT31;63247;54.300;18.592;2023-04-25T10:23:23;11.59;82.93
67249;SHT31;63247;54.300;18.592;2023-04-25T10:25:50;11.96;83.38
67249;SHT31;63247;54.300;18.592;2023-04-25T10:28:16;12.06;82.04
67249;SHT31;63247;54.300;18.592;2023-04-25T10:31:01;11.75;82.31
67249;SHT31;63247;54.300;18.592;2023-04-25T10:33:39;11.86;81.54
67249;SHT31;63247;54.300;18.592;2023-04-25T10:36:31;11.98;81.37
67249;SHT31;63247;54.300;18.592;2023-04-25T10:38:56;11.56;82.18
67249;SHT31;63247;54.300;18.592;2023-04-25T10:41:25;11.38;82.85
67249;SHT31;63247;54.300;18.592;2023-04-25T10:43:59;11.29;82.99
67249;SHT31;63247;54.300;18.592;2023-04-25T10:46:27;11.35;82.77
67249;SHT31;63247;54.300;18.592;2023-04-25T10:48:57;11.27;82.72
67249;SHT31;63247;54.300;18.592;2023-04-25T10:51:27;11.15;82.27
67249;SHT31;63247;54.300;18.592;2023-04-25T10:54:06;11.12;82.72
67249;SHT31;63247;54.300;18.592;2023-04-25T10:56:41;11.19;82.65
67249;SHT31;63247;54.300;18.592;2023-04-25T10:59:12;11.11;82.55
67249;SHT31;63247;54.300;18.592;2023-04-25T11:01:47;11.14;83.20
67249;SHT31;63247;54.300;18.592;2023-04-25T11:04:32;11.04;83.09
67249;SHT31;63247;54.300;18.592;2023-04-25T11:07:28;11.06;83.32
67249;SHT31;63247;54.300;18.592;2023-04-25T11:09:55;11.08;83.81
67249;SHT31;63247;54.300;18.592;2023-04-25T11:12:21;11.18;84.03
67249;SHT31;63247;54.300;18.592;2023-04-25T11:14:46;11.18;84.32
67249;SHT31;63247;54.300;18.592;2023-04-25T11:17:11;11.27;82.60
67249;SHT31;63247;54.300;18.592;2023-04-25T11:19:37;11.12;81.05
67249;SHT31;63247;54.300;18.592;2023-04-25T11:22:03;11.19;80.73
67249;SHT31;63247;54.300;18.592;2023-04-25T11:24:30;11.17;81.25
67249;SHT31;63247;54.300;18.592;2023-04-25T11:26:57;11.14;80.82
67249;SHT31;63247;54.300;18.592;2023-04-25T11:29:26;11.35;80.60
67249;SHT31;63247;54.300;18.592;2023-04-25T11:31:52;11.42;80.52
67249;SHT31;63247;54.300;18.592;2023-04-25T11:34:18;11.67;79.81
67249;SHT31;63247;54.300;18.592;2023-04-25T11:36:45;11.62;79.68
67249;SHT31;63247;54.300;18.592;2023-04-25T11:39:11;11.80;79.98
67249;SHT31;63247;54.300;18.592;2023-04-25T11:41:41;11.89;80.40
67249;SHT31;63247;54.300;18.592;2023-04-25T11:44:06;11.70;80.39
67249;SHT31;63247;54.300;18.592;2023-04-25T11:46:35;11.69;80.44
67249;SHT31;63247;54.300;18.592;2023-04-25T11:49:02;11.65;80.23
67249;SHT31;63247;54.300;18.592;2023-04-25T11:51:29;11.76;80.41
67249;SHT31;63247;54.300;18.592;2023-04-25T11:53:55;11.77;79.97
67249;SHT31;63247;54.300;18.592;2023-04-25T11:56:20;11.76;79.28
67249;SHT31;63247;54.300;18.592;2023-04-25T11:59:04;11.75;79.75
67249;SHT31;63247;54.300;18.592;2023-04-25T12:01:32;12.04;79.99
67249;SHT31;63247;54.300;18.592;2023-04-25T12:03:58;12.08;79.43
67249;SHT31;63247;54.300;18.592;2023-04-25T12:06:37;12.14;80.51
67249;SHT31;63247;54.300;18.592;2023-04-25T12:09:07;12.33;79.45
67249;SHT31;63247;54.300;18.592;2023-04-25T12:11:43;11.98;78.11
67249;SHT31;63247;54.300;18.592;2023-04-25T12:14:10;12.08;77.89
67249;SHT31;63247;54.300;18.592;2023-04-25T12:16:46;12.23;77.15
67249;SHT31;63247;54.300;18.592;2023-04-25T12:19:17;12.16;77.82
67249;SHT31;63247;54.300;18.592;2023-04-25T12:21:44;12.35;76.97
67249;SHT31;63247;54.300;18.592;2023-04-25T12:29:22;12.72;76.31
67249;SHT31;63247;54.300;18.592;2023-04-25T12:31:48;12.92;75.17
67249;SHT31;63247;54.300;18.592;2023-04-25T12:34:13;12.73;75.12
67249;SHT31;63247;54.300;18.592;2023-04-25T12:36:40;12.64;76.10
67249;SHT31;63247;54.300;18.592;2023-04-25T12:39:05;12.34;75.57
67249;SHT31;63247;54.300;18.592;2023-04-25T12:41:32;12.12;76.84
67249;SHT31;63247;54.300;18.592;2023-04-25T12:43:57;12.40;76.55
67249;SHT31;63247;54.300;18.592;2023-04-25T12:46:22;12.13;76.77
67249;SHT31;63247;54.300;18.592;2023-04-25T12:48:48;11.83;77.71
67249;SHT31;63247;54.300;18.592;2023-04-25T12:51:14;11.62;78.86
67249;SHT31;63247;54.300;18.592;2023-04-25T12:53:40;11.52;79.21
67249;SHT31;63247;54.300;18.592;2023-04-25T12:56:07;11.48;79.31
67249;SHT31;63247;54.300;18.592;2023-04-25T12:58:32;11.46;79.80
67249;SHT31;63247;54.300;18.592;2023-04-25T13:00:58;11.17;79.98
67249;SHT31;63247;54.300;18.592;2023-04-25T13:03:24;11.04;80.44
67249;SHT31;63247;54.300;18.592;2023-04-25T13:05:50;11.04;80.41
67249;SHT31;63247;54.300;18.592;2023-04-25T13:08:20;11.29;80.91
67249;SHT31;63247;54.300;18.592;2023-04-25T13:10:47;11.31;80.63
67249;SHT31;63247;54.300;18.592;2023-04-25T13:13:13;11.24;81.14
67249;SHT31;63247;54.300;18.592;2023-04-25T13:15:38;11.40;80.90
67249;SHT31;63247;54.300;18.592;2023-04-25T13:18:04;11.42;80.93
67249;SHT31;63247;54.300;18.592;2023-04-25T13:20:32;11.61;81.21
67249;SHT31;63247;54.300;18.592;2023-04-25T13:22:58;11.63;80.57
67249;SHT31;63247;54.300;18.592;2023-04-25T13:25:23;11.83;80.11
67249;SHT31;63247;54.300;18.592;2023-04-25T13:27:49;11.58;81.36
67249;SHT31;63247;54.300;18.592;2023-04-25T13:30:14;11.39;81.06
67249;SHT31;63247;54.300;18.592;2023-04-25T13:32:40;11.48;80.90
67249;SHT31;63247;54.300;18.592;2023-04-25T13:35:09;11.42;81.12
67249;SHT31;63247;54.300;18.592;2023-04-25T13:37:35;11.49;81.60
67249;SHT31;63247;54.300;18.592;2023-04-25T13:40:03;11.39;80.89
67249;SHT31;63247;54.300;18.592;2023-04-25T13:42:30;11.42;81.15
67249;SHT31;63247;54.300;18.592;2023-04-25T13:44:56;11.03;82.22
67249;SHT31;63247;54.300;18.592;2023-04-25T13:47:22;11.28;81.46
67249;SHT31;63247;54.300;18.592;2023-04-25T13:49:48;11.19;81.84
67249;SHT31;63247;54.300;18.592;2023-04-25T13:52:13;11.08;82.21
67249;SHT31;63247;54.300;18.592;2023-04-25T13:54:39;11.40;81.38
67249;SHT31;63247;54.300;18.592;2023-04-25T13:57:04;11.43;81.86
67249;SHT31;63247;54.300;18.592;2023-04-25T13:59:30;11.49;80.83
67249;SHT31;63247;54.300;18.592;2023-04-25T14:01:56;11.54;80.55
67249;SHT31;63247;54.300;18.592;2023-04-25T14:04:21;11.35;81.13
67249;SHT31;63247;54.300;18.592;2023-04-25T14:06:47;11.40;80.93
67249;SHT31;63247;54.300;18.592;2023-04-25T14:09:12;11.39;80.78
67249;SHT31;63247;54.300;18.592;2023-04-25T14:11:38;11.15;81.53
67249;SHT31;63247;54.300;18.592;2023-04-25T14:14:04;11.38;80.84
67249;SHT31;63247;54.300;18.592;2023-04-25T14:16:30;11.45;80.50
67249;SHT31;63247;54.300;18.592;2023-04-25T14:18:58;11.35;80.38
67249;SHT31;63247;54.300;18.592;2023-04-25T14:21:23;11.11;81.01
67249;SHT31;63247;54.300;18.592;2023-04-25T14:23:49;10.89;82.20
67249;SHT31;63247;54.300;18.592;2023-04-25T14:26:14;10.80;81.81
67249;SHT31;63247;54.300;18.592;2023-04-25T14:28:40;10.89;81.81
67249;SHT31;63247;54.300;18.592;2023-04-25T14:31:06;10.77;83.40
67249;SHT31;63247;54.300;18.592;2023-04-25T14:33:31;10.81;83.73
67249;SHT31;63247;54.300;18.592;2023-04-25T14:35:57;10.73;85.20
67249;SHT31;63247;54.300;18.592;2023-04-25T14:38:22;10.42;82.60
67249;SHT31;63247;54.300;18.592;2023-04-25T14:40:50;10.35;82.66
67249;SHT31;63247;54.300;18.592;2023-04-25T14:43:16;10.04;83.13
67249;SHT31;63247;54.300;18.592;2023-04-25T14:45:41;9.87;83.52
67249;SHT31;63247;54.300;18.592;2023-04-25T14:48:06;9.73;84.10
67249;SHT31;63247;54.300;18.592;2023-04-25T14:50:32;9.67;84.57
67249;SHT31;63247;54.300;18.592;2023-04-25T14:52:57;9.54;85.22
67249;SHT31;63247;54.300;18.592;2023-04-25T14:55:28;9.63;84.73
67249;SHT31;63247;54.300;18.592;2023-04-25T14:57:54;9.51;84.54
67249;SHT31;63247;54.300;18.592;2023-04-25T15:00:21;9.36;84.71
67249;SHT31;63247;54.300;18.592;2023-04-25T15:02:48;9.39;84.37
67249;SHT31;63247;54.300;18.592;2023-04-25T15:05:14;9.26;84.00
67249;SHT31;63247;54.300;18.592;2023-04-25T15:07:40;9.20;84.32
67249;SHT31;63247;54.300;18.592;2023-04-25T15:10:09;9.06;84.28
67249;SHT31;63247;54.300;18.592;2023-04-25T15:12:45;9.05;84.70
67249;SHT31;63247;54.300;18.592;2023-04-25T15:15:11;9.15;84.42
67249;SHT31;63247;54.300;18.592;2023-04-25T15:17:41;9.20;83.51
67249;SHT31;63247;54.300;18.592;2023-04-25T15:20:09;9.20;83.84
67249;SHT31;63247;54.300;18.592;2023-04-25T15:22:36;9.27;83.29
67249;SHT31;63247;54.300;18.592;2023-04-25T15:25:02;9.15;83.27
67249;SHT31;63247;54.300;18.592;2023-04-25T15:27:28;9.20;82.84